Airfield :
LOGIN :

Register | Disclaimer

   EN    FR    IT 

 










Legend :    VFR   Marginal VFR   IFR   Intensive IFR   Very Intensive IFR
Visi :
Ceiling :
>= 8 km
>= 3000ft
5 to 8 km
1000 to 3000 ft
1500m to 5 km
500 to 1000 ft
800 to 1500m
200 to 500 ft
< 800m
< 200 ft
Symbols :   Thunderstorms  Fog  Heavy snow  Heavy precipitations  Wind > 20 kt
SIGMETs :     Misc.  Thunderstorms  Icing  Turbulence  Mountain Waves  Volcanic Ashes







- Airport Elevation : 85 ft
- IATA code : SFA


DTTX - Thyna/El Maou - Sfax

CURRENT METAR :
  • 182200Z 15004KT 110V180 CAVOK 28/21 Q1014 NOSIG

EXPIRED METARs :
  • 182100Z 15004KT 130V200 CAVOK 28/21 Q1014 NOSIG
  • 182000Z 11006KT 070V140 CAVOK 28/21 Q1014 NOSIG

TAF TAF DTTX
Valid from the 18 at 18:00 until the 19 at 18:00 UTC


181731Z 1818/1918 10010KT CAVOK
BECMG 1822/1824 16006KT
No reported NOTAMs for that airfield.



MET'MAP, your aeronautical weather chart ! - Copyright ORBIFLY December 2007 - Disclaimer

ORBIFLY MET'MAP TEAM :

Programming & Development : Alexandra Zaïnal
Concept & Development : Baudouin d'Aumeries
Co-Development & Prog : Marc-Olivier Méhu
Technical & hardware support : Manuel Goepfert

Contact : metmap@orbifly.com




SOURCES & CREDITS :

   NOAA